sensor_id;sensor_type;location;lat;lon;timestamp;pressure;altitude;pressure_sealevel;temperature;humidity
41230;BME280;26964;50.428;19.218;2023-02-10T00:02:25;1036.6;;;-4.1;69.0
41230;BME280;26964;50.428;19.218;2023-02-10T00:07:26;1036.5;;;-4.0;69.1
41230;BME280;26964;50.428;19.218;2023-02-10T00:12:26;1036.3;;;-3.9;69.1
41230;BME280;26964;50.428;19.218;2023-02-10T00:17:25;1036.2;;;-3.8;69.1
41230;BME280;26964;50.428;19.218;2023-02-10T00:22:25;1036.3;;;-3.7;69.2
41230;BME280;26964;50.428;19.218;2023-02-10T00:27:25;1036.3;;;-3.7;69.2
41230;BME280;26964;50.428;19.218;2023-02-10T00:32:25;1036.3;;;-3.6;69.2
41230;BME280;26964;50.428;19.218;2023-02-10T00:37:25;1036.3;;;-3.5;69.2
41230;BME280;26964;50.428;19.218;2023-02-10T00:42:26;1036.4;;;-3.5;69.1
41230;BME280;26964;50.428;19.218;2023-02-10T00:47:25;1036.4;;;-3.5;69.1
41230;BME280;26964;50.428;19.218;2023-02-10T00:52:25;1036.4;;;-3.5;69.1
41230;BME280;26964;50.428;19.218;2023-02-10T00:57:26;1036.5;;;-3.5;69.2
41230;BME280;26964;50.428;19.218;2023-02-10T01:02:25;1036.4;;;-3.5;69.2
41230;BME280;26964;50.428;19.218;2023-02-10T01:07:25;1036.3;;;-3.5;69.2
41230;BME280;26964;50.428;19.218;2023-02-10T01:12:25;1036.3;;;-3.4;69.2
41230;BME280;26964;50.428;19.218;2023-02-10T01:17:26;1036.2;;;-3.4;69.3
41230;BME280;26964;50.428;19.218;2023-02-10T01:22:25;1036.3;;;-3.3;69.3
41230;BME280;26964;50.428;19.218;2023-02-10T01:27:25;1036.3;;;-3.3;69.3
41230;BME280;26964;50.428;19.218;2023-02-10T01:32:25;1036.0;;;-3.3;69.3
41230;BME280;26964;50.428;19.218;2023-02-10T01:37:25;1036.1;;;-3.2;69.3
41230;BME280;26964;50.428;19.218;2023-02-10T01:42:26;1036.1;;;-3.2;69.3
41230;BME280;26964;50.428;19.218;2023-02-10T01:47:25;1036.0;;;-3.2;69.3
41230;BME280;26964;50.428;19.218;2023-02-10T01:52:25;1036.1;;;-3.2;69.3
41230;BME280;26964;50.428;19.218;2023-02-10T01:57:25;1036.0;;;-3.2;69.2
41230;BME280;26964;50.428;19.218;2023-02-10T02:02:25;1035.9;;;-3.2;69.3
41230;BME280;26964;50.428;19.218;2023-02-10T02:07:27;1036.0;;;-3.2;69.3
41230;BME280;26964;50.428;19.218;2023-02-10T02:12:30;1035.8;;;-3.2;69.2
41230;BME280;26964;50.428;19.218;2023-02-10T02:17:31;1035.9;;;-3.2;69.2
41230;BME280;26964;50.428;19.218;2023-02-10T02:32:26;1035.7;;;-3.3;69.2
41230;BME280;26964;50.428;19.218;2023-02-10T02:37:29;1035.8;;;-3.4;69.2
41230;BME280;26964;50.428;19.218;2023-02-10T02:42:27;1035.7;;;-3.4;69.2
41230;BME280;26964;50.428;19.218;2023-02-10T02:52:31;1035.6;;;-3.4;69.1
41230;BME280;26964;50.428;19.218;2023-02-10T02:57:30;1035.7;;;-3.4;69.2
41230;BME280;26964;50.428;19.218;2023-02-10T03:02:25;1035.7;;;-3.4;69.2
41230;BME280;26964;50.428;19.218;2023-02-10T03:07:25;1035.7;;;-3.5;69.2
41230;BME280;26964;50.428;19.218;2023-02-10T03:12:26;1035.8;;;-3.5;69.2
41230;BME280;26964;50.428;19.218;2023-02-10T03:17:25;1035.7;;;-3.5;69.2
41230;BME280;26964;50.428;19.218;2023-02-10T03:22:26;1035.8;;;-3.6;69.2
41230;BME280;26964;50.428;19.218;2023-02-10T03:27:25;1035.8;;;-3.6;69.2
41230;BME280;26964;50.428;19.218;2023-02-10T03:32:26;1035.7;;;-3.7;69.2
41230;BME280;26964;50.428;19.218;2023-02-10T03:37:26;1035.7;;;-3.7;69.2
41230;BME280;26964;50.428;19.218;2023-02-10T03:42:25;1035.7;;;-3.8;69.2
41230;BME280;26964;50.428;19.218;2023-02-10T03:47:26;1035.8;;;-3.8;69.2
41230;BME280;26964;50.428;19.218;2023-02-10T03:52:25;1035.9;;;-3.9;69.3
41230;BME280;26964;50.428;19.218;2023-02-10T03:57:26;1035.9;;;-4.0;69.3
41230;BME280;26964;50.428;19.218;2023-02-10T04:02:26;1036.0;;;-4.0;69.3
41230;BME280;26964;50.428;19.218;2023-02-10T04:07:25;1036.0;;;-4.1;69.3
41230;BME280;26964;50.428;19.218;2023-02-10T04:12:25;1036.0;;;-4.2;69.3
41230;BME280;26964;50.428;19.218;2023-02-10T04:17:25;1035.8;;;-4.2;69.3
41230;BME280;26964;50.428;19.218;2023-02-10T04:22:25;1036.0;;;-4.3;69.3
41230;BME280;26964;50.428;19.218;2023-02-10T04:27:26;1036.0;;;-4.4;69.3
41230;BME280;26964;50.428;19.218;2023-02-10T04:32:48;1036.0;;;-4.5;69.4
41230;BME280;26964;50.428;19.218;2023-02-10T04:37:25;1036.1;;;-4.5;69.4
41230;BME280;26964;50.428;19.218;2023-02-10T04:42:26;1036.1;;;-4.6;69.5
41230;BME280;26964;50.428;19.218;2023-02-10T04:47:26;1036.0;;;-4.7;69.4
41230;BME280;26964;50.428;19.218;2023-02-10T04:52:26;1036.0;;;-4.8;69.5
41230;BME280;26964;50.428;19.218;2023-02-10T04:57:25;1035.9;;;-4.9;69.5
41230;BME280;26964;50.428;19.218;2023-02-10T05:02:25;1036.0;;;-4.9;69.5
41230;BME280;26964;50.428;19.218;2023-02-10T05:07:25;1035.9;;;-5.0;69.6
41230;BME280;26964;50.428;19.218;2023-02-10T05:12:25;1036.1;;;-5.1;69.6
41230;BME280;26964;50.428;19.218;2023-02-10T05:17:25;1036.2;;;-5.1;69.6
41230;BME280;26964;50.428;19.218;2023-02-10T05:22:25;1036.2;;;-5.2;69.7
41230;BME280;26964;50.428;19.218;2023-02-10T05:27:25;1036.1;;;-5.2;69.6
41230;BME280;26964;50.428;19.218;2023-02-10T05:32:25;1036.3;;;-5.3;69.7
41230;BME280;26964;50.428;19.218;2023-02-10T05:37:26;1036.3;;;-5.3;69.7
41230;BME280;26964;50.428;19.218;2023-02-10T05:42:25;1036.3;;;-5.4;69.7
41230;BME280;26964;50.428;19.218;2023-02-10T05:47:26;1036.4;;;-5.4;69.7
41230;BME280;26964;50.428;19.218;2023-02-10T05:52:26;1036.3;;;-5.5;69.8
41230;BME280;26964;50.428;19.218;2023-02-10T05:57:25;1036.3;;;-5.5;69.8
41230;BME280;26964;50.428;19.218;2023-02-10T06:02:25;1036.4;;;-5.5;69.8
41230;BME280;26964;50.428;19.218;2023-02-10T06:07:25;1036.4;;;-5.6;69.8
41230;BME280;26964;50.428;19.218;2023-02-10T06:12:25;1036.4;;;-5.6;69.9
41230;BME280;26964;50.428;19.218;2023-02-10T06:17:25;1036.6;;;-5.6;69.9
41230;BME280;26964;50.428;19.218;2023-02-10T06:22:25;1036.6;;;-5.6;69.9
41230;BME280;26964;50.428;19.218;2023-02-10T06:27:25;1036.7;;;-5.6;70.0
41230;BME280;26964;50.428;19.218;2023-02-10T06:32:25;1036.7;;;-5.5;70.0
41230;BME280;26964;50.428;19.218;2023-02-10T06:37:25;1036.7;;;-5.4;70.0
41230;BME280;26964;50.428;19.218;2023-02-10T06:42:25;1036.5;;;-5.4;70.0
41230;BME280;26964;50.428;19.218;2023-02-10T06:47:25;1036.6;;;-5.3;70.0
41230;BME280;26964;50.428;19.218;2023-02-10T06:52:25;1036.6;;;-5.2;70.0
41230;BME280;26964;50.428;19.218;2023-02-10T06:57:25;1036.8;;;-5.1;70.0
41230;BME280;26964;50.428;19.218;2023-02-10T07:02:25;1036.9;;;-5.0;70.0
41230;BME280;26964;50.428;19.218;2023-02-10T07:07:24;1036.9;;;-4.8;70.1
41230;BME280;26964;50.428;19.218;2023-02-10T07:12:24;1036.8;;;-4.7;70.1
41230;BME280;26964;50.428;19.218;2023-02-10T07:17:25;1036.8;;;-4.5;70.1
41230;BME280;26964;50.428;19.218;2023-02-10T07:22:25;1036.9;;;-4.3;70.1
41230;BME280;26964;50.428;19.218;2023-02-10T07:27:25;1037.0;;;-4.1;70.0
41230;BME280;26964;50.428;19.218;2023-02-10T07:32:24;1036.9;;;-3.9;70.0
41230;BME280;26964;50.428;19.218;2023-02-10T07:37:24;1036.8;;;-3.7;69.9
41230;BME280;26964;50.428;19.218;2023-02-10T07:42:24;1036.8;;;-3.5;69.8
41230;BME280;26964;50.428;19.218;2023-02-10T07:47:25;1036.8;;;-3.3;69.8
41230;BME280;26964;50.428;19.218;2023-02-10T07:52:25;1036.9;;;-3.1;69.7
41230;BME280;26964;50.428;19.218;2023-02-10T07:57:25;1037.1;;;-2.9;69.7
41230;BME280;26964;50.428;19.218;2023-02-10T08:02:24;1036.9;;;-2.7;69.5
41230;BME280;26964;50.428;19.218;2023-02-10T08:07:24;1037.0;;;-2.5;69.5
41230;BME280;26964;50.428;19.218;2023-02-10T08:12:24;1037.1;;;-2.3;69.4
41230;BME280;26964;50.428;19.218;2023-02-10T08:17:26;1037.1;;;-2.2;69.4
41230;BME280;26964;50.428;19.218;2023-02-10T08:22:25;1037.1;;;-2.0;69.3
41230;BME280;26964;50.428;19.218;2023-02-10T08:27:24;1037.2;;;-1.9;69.2
41230;BME280;26964;50.428;19.218;2023-02-10T08:32:24;1037.2;;;-1.8;69.0
41230;BME280;26964;50.428;19.218;2023-02-10T08:37:24;1037.1;;;-1.7;69.1
41230;BME280;26964;50.428;19.218;2023-02-10T08:42:24;1037.2;;;-1.6;69.0
41230;BME280;26964;50.428;19.218;2023-02-10T08:47:24;1037.2;;;-1.5;68.9
41230;BME280;26964;50.428;19.218;2023-02-10T08:52:24;1037.1;;;-1.4;68.9
41230;BME280;26964;50.428;19.218;2023-02-10T08:57:24;1037.1;;;-1.3;68.9
41230;BME280;26964;50.428;19.218;2023-02-10T09:02:24;1037.1;;;-1.0;68.8
41230;BME280;26964;50.428;19.218;2023-02-10T09:07:24;1037.0;;;-0.8;68.5
41230;BME280;26964;50.428;19.218;2023-02-10T09:12:25;1037.2;;;-0.6;68.6
41230;BME280;26964;50.428;19.218;2023-02-10T09:17:26;1037.2;;;-0.6;68.5
41230;BME280;26964;50.428;19.218;2023-02-10T09:22:24;1037.2;;;-0.5;68.5
41230;BME280;26964;50.428;19.218;2023-02-10T09:27:25;1037.1;;;-0.4;68.1
41230;BME280;26964;50.428;19.218;2023-02-10T09:32:24;1037.2;;;-0.3;68.3
41230;BME280;26964;50.428;19.218;2023-02-10T09:37:25;1037.1;;;-0.3;68.3
41230;BME280;26964;50.428;19.218;2023-02-10T09:42:29;1037.2;;;-0.1;68.2
41230;BME280;26964;50.428;19.218;2023-02-10T09:52:31;1037.3;;;0.2;67.8
41230;BME280;26964;50.428;19.218;2023-02-10T09:57:30;1037.4;;;0.2;67.6
41230;BME280;26964;50.428;19.218;2023-02-10T10:02:29;1037.2;;;0.1;67.8
41230;BME280;26964;50.428;19.218;2023-02-10T10:07:26;1037.1;;;0.1;67.2
41230;BME280;26964;50.428;19.218;2023-02-10T10:12:25;1037.1;;;0.1;67.8
41230;BME280;26964;50.428;19.218;2023-02-10T10:27:28;1037.1;;;0.4;67.9
41230;BME280;26964;50.428;19.218;2023-02-10T10:37:25;1037.3;;;0.6;67.6
41230;BME280;26964;50.428;19.218;2023-02-10T10:42:27;1037.2;;;0.7;67.2
41230;BME280;26964;50.428;19.218;2023-02-10T10:47:31;1037.1;;;0.7;67.2
41230;BME280;26964;50.428;19.218;2023-02-10T10:52:27;1037.1;;;0.8;67.4
41230;BME280;26964;50.428;19.218;2023-02-10T10:57:26;1037.1;;;1.0;67.1
41230;BME280;26964;50.428;19.218;2023-02-10T11:02:24;1037.0;;;1.1;67.2
41230;BME280;26964;50.428;19.218;2023-02-10T11:07:28;1037.0;;;1.1;67.1
41230;BME280;26964;50.428;19.218;2023-02-10T11:12:30;1037.0;;;1.1;67.0
41230;BME280;26964;50.428;19.218;2023-02-10T11:17:30;1036.9;;;1.1;66.6
41230;BME280;26964;50.428;19.218;2023-02-10T11:22:24;1036.9;;;1.1;67.0
41230;BME280;26964;50.428;19.218;2023-02-10T11:27:24;1036.8;;;1.1;67.1
41230;BME280;26964;50.428;19.218;2023-02-10T11:32:26;1036.8;;;1.2;66.9
41230;BME280;26964;50.428;19.218;2023-02-10T11:37:29;1036.8;;;1.2;67.0
41230;BME280;26964;50.428;19.218;2023-02-10T11:42:27;1036.8;;;1.1;66.8
41230;BME280;26964;50.428;19.218;2023-02-10T11:47:26;1036.7;;;1.1;66.7
41230;BME280;26964;50.428;19.218;2023-02-10T11:52:26;1036.8;;;1.0;66.9
41230;BME280;26964;50.428;19.218;2023-02-10T12:02:30;1036.7;;;1.0;66.8
41230;BME280;26964;50.428;19.218;2023-02-10T12:12:30;1036.8;;;0.9;66.8
41230;BME280;26964;50.428;19.218;2023-02-10T12:17:27;1037.0;;;0.9;66.9
41230;BME280;26964;50.428;19.218;2023-02-10T12:22:28;1036.9;;;0.9;66.7
41230;BME280;26964;50.428;19.218;2023-02-10T12:27:30;1036.9;;;0.9;66.8
41230;BME280;26964;50.428;19.218;2023-02-10T12:32:30;1037.0;;;1.0;66.9
41230;BME280;26964;50.428;19.218;2023-02-10T12:37:30;1037.0;;;1.0;66.7
41230;BME280;26964;50.428;19.218;2023-02-10T12:52:26;1037.1;;;1.2;66.8
41230;BME280;26964;50.428;19.218;2023-02-10T12:57:28;1037.1;;;1.3;66.9
41230;BME280;26964;50.428;19.218;2023-02-10T13:02:31;1037.0;;;1.3;66.8
41230;BME280;26964;50.428;19.218;2023-02-10T13:07:32;1036.9;;;1.3;66.4
41230;BME280;26964;50.428;19.218;2023-02-10T13:12:26;1036.9;;;1.2;66.4
41230;BME280;26964;50.428;19.218;2023-02-10T13:17:25;1037.0;;;1.2;66.5
41230;BME280;26964;50.428;19.218;2023-02-10T13:32:28;1037.2;;;0.8;66.6
41230;BME280;26964;50.428;19.218;2023-02-10T13:42:27;1037.2;;;0.9;66.7
41230;BME280;26964;50.428;19.218;2023-02-10T13:47:29;1037.2;;;0.9;66.8
41230;BME280;26964;50.428;19.218;2023-02-10T13:57:27;1037.1;;;1.0;67.0
41230;BME280;26964;50.428;19.218;2023-02-10T14:02:24;1037.2;;;1.0;67.0
41230;BME280;26964;50.428;19.218;2023-02-10T14:12:26;1037.3;;;0.9;67.2
41230;BME280;26964;50.428;19.218;2023-02-10T14:17:25;1037.4;;;0.9;67.2
41230;BME280;26964;50.428;19.218;2023-02-10T14:22:30;1037.3;;;0.9;67.2
41230;BME280;26964;50.428;19.218;2023-02-10T14:27:26;1037.3;;;0.9;67.3
41230;BME280;26964;50.428;19.218;2023-02-10T14:32:24;1037.4;;;0.9;67.4
41230;BME280;26964;50.428;19.218;2023-02-10T14:37:24;1037.3;;;0.9;67.5
41230;BME280;26964;50.428;19.218;2023-02-10T14:42:26;1037.4;;;0.9;67.5
41230;BME280;26964;50.428;19.218;2023-02-10T14:47:28;1037.4;;;0.9;67.5
41230;BME280;26964;50.428;19.218;2023-02-10T14:52:26;1037.5;;;0.8;67.7
41230;BME280;26964;50.428;19.218;2023-02-10T14:57:25;1037.5;;;0.8;67.8
41230;BME280;26964;50.428;19.218;2023-02-10T15:02:25;1037.5;;;0.8;67.8
41230;BME280;26964;50.428;19.218;2023-02-10T15:07:26;1037.4;;;0.8;67.9
41230;BME280;26964;50.428;19.218;2023-02-10T15:12:24;1037.3;;;0.7;68.0
41230;BME280;26964;50.428;19.218;2023-02-10T15:17:29;1037.4;;;0.7;68.1
41230;BME280;26964;50.428;19.218;2023-02-10T15:27:28;1037.4;;;0.7;68.2
41230;BME280;26964;50.428;19.218;2023-02-10T15:32:24;1037.3;;;0.6;68.2
41230;BME280;26964;50.428;19.218;2023-02-10T15:37:25;1037.3;;;0.6;68.3
41230;BME280;26964;50.428;19.218;2023-02-10T15:42:27;1037.4;;;0.6;68.3
41230;BME280;26964;50.428;19.218;2023-02-10T15:47:27;1037.5;;;0.6;68.4
41230;BME280;26964;50.428;19.218;2023-02-10T15:52:27;1037.5;;;0.6;68.4
41230;BME280;26964;50.428;19.218;2023-02-10T15:57:24;1037.5;;;0.6;68.5
41230;BME280;26964;50.428;19.218;2023-02-10T16:02:24;1037.5;;;0.5;68.5
41230;BME280;26964;50.428;19.218;2023-02-10T16:07:24;1037.6;;;0.5;68.5
41230;BME280;26964;50.428;19.218;2023-02-10T16:12:24;1037.5;;;0.5;68.6
41230;BME280;26964;50.428;19.218;2023-02-10T16:17:27;1037.5;;;0.5;68.6
41230;BME280;26964;50.428;19.218;2023-02-10T16:22:24;1037.5;;;0.5;68.6
41230;BME280;26964;50.428;19.218;2023-02-10T16:27:24;1037.5;;;0.4;68.6
41230;BME280;26964;50.428;19.218;2023-02-10T16:32:23;1037.5;;;0.4;68.6
41230;BME280;26964;50.428;19.218;2023-02-10T16:37:24;1037.5;;;0.4;68.6
41230;BME280;26964;50.428;19.218;2023-02-10T16:42:23;1037.7;;;0.4;68.6
41230;BME280;26964;50.428;19.218;2023-02-10T16:47:24;1037.7;;;0.4;68.6
41230;BME280;26964;50.428;19.218;2023-02-10T16:52:24;1037.7;;;0.4;68.6
41230;BME280;26964;50.428;19.218;2023-02-10T16:57:24;1037.8;;;0.3;68.6
41230;BME280;26964;50.428;19.218;2023-02-10T17:02:24;1037.9;;;0.3;68.9
41230;BME280;26964;50.428;19.218;2023-02-10T17:07:24;1037.9;;;0.3;68.6
41230;BME280;26964;50.428;19.218;2023-02-10T17:12:24;1038.0;;;0.3;68.6
41230;BME280;26964;50.428;19.218;2023-02-10T17:17:23;1038.0;;;0.3;68.6
41230;BME280;26964;50.428;19.218;2023-02-10T17:22:23;1038.1;;;0.3;68.6
41230;BME280;26964;50.428;19.218;2023-02-10T17:27:25;1038.0;;;0.3;68.6
41230;BME280;26964;50.428;19.218;2023-02-10T17:32:24;1038.0;;;0.3;68.7
41230;BME280;26964;50.428;19.218;2023-02-10T17:37:24;1038.0;;;0.3;68.7
41230;BME280;26964;50.428;19.218;2023-02-10T17:42:24;1038.0;;;0.2;68.7
41230;BME280;26964;50.428;19.218;2023-02-10T17:47:24;1037.9;;;0.2;68.7
41230;BME280;26964;50.428;19.218;2023-02-10T17:52:24;1037.9;;;0.2;68.8
41230;BME280;26964;50.428;19.218;2023-02-10T17:57:24;1037.9;;;0.2;68.8
41230;BME280;26964;50.428;19.218;2023-02-10T18:02:24;1037.9;;;0.2;68.8
41230;BME280;26964;50.428;19.218;2023-02-10T18:07:24;1037.9;;;0.2;68.9
41230;BME280;26964;50.428;19.218;2023-02-10T18:12:24;1037.7;;;0.2;68.8
41230;BME280;26964;50.428;19.218;2023-02-10T18:17:23;1037.7;;;0.2;68.9
41230;BME280;26964;50.428;19.218;2023-02-10T18:22:24;1037.8;;;0.2;68.9
41230;BME280;26964;50.428;19.218;2023-02-10T18:27:24;1037.8;;;0.1;68.9
41230;BME280;26964;50.428;19.218;2023-02-10T18:32:24;1037.7;;;0.1;69.0
41230;BME280;26964;50.428;19.218;2023-02-10T18:37:23;1037.6;;;0.1;69.0
41230;BME280;26964;50.428;19.218;2023-02-10T18:42:23;1037.5;;;0.1;69.0
41230;BME280;26964;50.428;19.218;2023-02-10T18:47:23;1037.5;;;0.1;69.0
41230;BME280;26964;50.428;19.218;2023-02-10T18:52:24;1037.6;;;0.1;69.1
41230;BME280;26964;50.428;19.218;2023-02-10T18:57:24;1037.5;;;0.1;69.1
41230;BME280;26964;50.428;19.218;2023-02-10T19:02:24;1037.6;;;0.0;69.1
41230;BME280;26964;50.428;19.218;2023-02-10T19:07:24;1037.6;;;0.0;69.2
41230;BME280;26964;50.428;19.218;2023-02-10T19:12:23;1037.7;;;0.0;69.2
41230;BME280;26964;50.428;19.218;2023-02-10T19:17:23;1037.7;;;-0.0;69.2
41230;BME280;26964;50.428;19.218;2023-02-10T19:22:24;1037.7;;;0.0;69.2
41230;BME280;26964;50.428;19.218;2023-02-10T19:27:24;1037.7;;;-0.0;69.3
41230;BME280;26964;50.428;19.218;2023-02-10T19:32:24;1037.6;;;-0.1;69.4
41230;BME280;26964;50.428;19.218;2023-02-10T19:37:24;1037.6;;;-0.1;69.4
41230;BME280;26964;50.428;19.218;2023-02-10T19:42:24;1037.7;;;-0.1;69.4
41230;BME280;26964;50.428;19.218;2023-02-10T19:47:23;1037.6;;;-0.1;69.5
41230;BME280;26964;50.428;19.218;2023-02-10T19:52:26;1037.7;;;-0.1;69.5
41230;BME280;26964;50.428;19.218;2023-02-10T19:57:24;1037.5;;;-0.1;69.6
41230;BME280;26964;50.428;19.218;2023-02-10T20:02:24;1037.6;;;-0.1;69.6
41230;BME280;26964;50.428;19.218;2023-02-10T20:07:23;1037.4;;;-0.2;69.6
41230;BME280;26964;50.428;19.218;2023-02-10T20:12:24;1037.3;;;-0.2;69.7
41230;BME280;26964;50.428;19.218;2023-02-10T20:17:24;1037.4;;;-0.2;69.7
41230;BME280;26964;50.428;19.218;2023-02-10T20:22:24;1037.3;;;-0.3;69.7
41230;BME280;26964;50.428;19.218;2023-02-10T20:27:24;1037.3;;;-0.3;69.8
41230;BME280;26964;50.428;19.218;2023-02-10T20:32:23;1037.3;;;-0.3;69.8
41230;BME280;26964;50.428;19.218;2023-02-10T20:37:24;1037.3;;;-0.3;69.8
41230;BME280;26964;50.428;19.218;2023-02-10T20:42:23;1037.4;;;-0.3;69.8
41230;BME280;26964;50.428;19.218;2023-02-10T20:47:24;1037.3;;;-0.4;69.9
41230;BME280;26964;50.428;19.218;2023-02-10T20:52:23;1037.4;;;-0.4;69.9
41230;BME280;26964;50.428;19.218;2023-02-10T20:57:24;1037.4;;;-0.4;70.0
41230;BME280;26964;50.428;19.218;2023-02-10T21:02:23;1037.2;;;-0.5;70.0
41230;BME280;26964;50.428;19.218;2023-02-10T21:07:24;1037.4;;;-0.5;70.0
41230;BME280;26964;50.428;19.218;2023-02-10T21:12:24;1037.3;;;-0.5;70.1
41230;BME280;26964;50.428;19.218;2023-02-10T21:17:23;1037.3;;;-0.5;70.1
41230;BME280;26964;50.428;19.218;2023-02-10T21:22:24;1037.2;;;-0.5;70.1
41230;BME280;26964;50.428;19.218;2023-02-10T21:27:23;1037.2;;;-0.6;70.2
41230;BME280;26964;50.428;19.218;2023-02-10T21:32:23;1037.2;;;-0.6;70.2
41230;BME280;26964;50.428;19.218;2023-02-10T21:37:24;1037.1;;;-0.6;70.2
41230;BME280;26964;50.428;19.218;2023-02-10T21:42:34;1037.2;;;-0.7;70.2
41230;BME280;26964;50.428;19.218;2023-02-10T21:47:23;1037.2;;;-0.7;70.2
41230;BME280;26964;50.428;19.218;2023-02-10T21:52:24;1037.2;;;-0.7;70.2
41230;BME280;26964;50.428;19.218;2023-02-10T21:57:24;1037.0;;;-0.7;70.3
41230;BME280;26964;50.428;19.218;2023-02-10T22:02:24;1036.8;;;-0.8;70.2
41230;BME280;26964;50.428;19.218;2023-02-10T22:07:24;1036.8;;;-0.8;70.3
41230;BME280;26964;50.428;19.218;2023-02-10T22:12:23;1036.7;;;-0.9;70.3
41230;BME280;26964;50.428;19.218;2023-02-10T22:17:23;1036.8;;;-0.9;70.3
41230;BME280;26964;50.428;19.218;2023-02-10T22:22:24;1036.7;;;-1.0;70.3
41230;BME280;26964;50.428;19.218;2023-02-10T22:27:23;1036.6;;;-1.1;70.3
41230;BME280;26964;50.428;19.218;2023-02-10T22:32:24;1036.7;;;-1.1;70.3
41230;BME280;26964;50.428;19.218;2023-02-10T22:37:24;1036.6;;;-1.3;70.2
41230;BME280;26964;50.428;19.218;2023-02-10T22:42:23;1036.7;;;-1.4;70.3
41230;BME280;26964;50.428;19.218;2023-02-10T22:47:23;1036.6;;;-1.5;70.3
41230;BME280;26964;50.428;19.218;2023-02-10T22:52:24;1036.4;;;-1.6;70.3
41230;BME280;26964;50.428;19.218;2023-02-10T22:57:25;1036.5;;;-1.7;70.4
41230;BME280;26964;50.428;19.218;2023-02-10T23:02:24;1036.6;;;-1.8;70.4
41230;BME280;26964;50.428;19.218;2023-02-10T23:07:24;1036.5;;;-1.9;70.5
41230;BME280;26964;50.428;19.218;2023-02-10T23:12:24;1036.4;;;-2.0;70.5
41230;BME280;26964;50.428;19.218;2023-02-10T23:17:23;1036.3;;;-2.1;70.5
41230;BME280;26964;50.428;19.218;2023-02-10T23:22:23;1036.3;;;-2.2;70.6
41230;BME280;26964;50.428;19.218;2023-02-10T23:27:25;1036.2;;;-2.2;70.6
41230;BME280;26964;50.428;19.218;2023-02-10T23:32:24;1036.2;;;-2.3;70.6
41230;BME280;26964;50.428;19.218;2023-02-10T23:37:24;1036.2;;;-2.4;70.7
41230;BME280;26964;50.428;19.218;2023-02-10T23:42:24;1036.2;;;-2.4;70.7
41230;BME280;26964;50.428;19.218;2023-02-10T23:47:23;1036.1;;;-2.5;70.7
41230;BME280;26964;50.428;19.218;2023-02-10T23:52:24;1036.1;;;-2.6;70.8
41230;BME280;26964;50.428;19.218;2023-02-10T23:57:23;1035.9;;;-2.7;70.8
